Time;durP1;ratioP1;P1;durP2;ratioP2;P2;SDS_P1;SDS_P2;PMS_P1;PMS_P2;Temp;Humidity;BMP_temperature;BMP_pressure;BME280_temperature;BME280_humidity;BME280_pressure;Samples;Min_cycle;Max_cycle;Signal;HPM_P1;HPM_P2
2023/03/02 00:00:45;;;;;;;40.20;23.53;;;;;;;6.21;46.83;97526.34;4951147;28;20426;-71
2023/03/02 00:03:12;;;;;;;36.60;22.70;;;;;;;6.12;47.04;97522.66;4949656;28;20440;-68
2023/03/02 00:05:39;;;;;;;36.10;21.63;;;;;;;6.17;46.67;97532.72;4934070;28;20426;-68
2023/03/02 00:08:06;;;;;;;37.73;23.33;;;;;;;6.09;46.67;97525.47;4917786;29;20530;-68
2023/03/02 00:10:33;;;;;;;40.87;22.63;;;;;;;6.12;47.42;97522.66;4935842;28;20470;-68
2023/03/02 00:12:58;;;;;;;32.80;20.73;;;;;;;6.12;46.78;97520.06;4953031;28;20434;-69
2023/03/02 00:15:24;;;;;;;33.20;21.70;;;;;;;6.07;47.08;97509.16;4950641;28;20542;-68
2023/03/02 00:17:49;;;;;;;33.93;20.20;;;;;;;5.95;47.44;97516.09;4950853;28;20584;-69
2023/03/02 00:20:15;;;;;;;42.93;21.83;;;;;;;5.95;47.67;97519.50;4950402;28;20194;-69
2023/03/02 00:22:42;;;;;;;39.37;23.10;;;;;;;5.93;47.74;97521.41;4951320;28;20186;-68
2023/03/02 00:25:09;;;;;;;38.97;22.00;;;;;;;5.96;47.72;97521.19;4956739;28;20473;-69
2023/03/02 00:27:34;;;;;;;38.67;21.53;;;;;;;5.97;47.57;97515.03;4957179;28;20445;-70
2023/03/02 00:30:00;;;;;;;32.43;21.03;;;;;;;5.98;47.33;97514.09;4958340;28;20421;-70
2023/03/02 00:32:26;;;;;;;34.70;21.20;;;;;;;5.96;47.68;97515.16;4957572;28;20186;-70
2023/03/02 00:34:51;;;;;;;31.40;20.80;;;;;;;5.76;48.23;97511.44;4962350;28;20219;-70
2023/03/02 00:37:17;;;;;;;32.77;20.57;;;;;;;5.68;47.99;97515.44;4963142;28;20568;-69
2023/03/02 00:39:42;;;;;;;37.37;22.60;;;;;;;5.72;47.53;97515.22;4965946;28;20801;-68
2023/03/02 00:42:08;;;;;;;35.63;22.10;;;;;;;5.73;48.31;97509.06;4960290;28;20580;-68
2023/03/02 00:44:33;;;;;;;33.53;21.70;;;;;;;5.67;48.44;97507.75;4967134;28;20202;-70
2023/03/02 00:46:59;;;;;;;35.93;21.47;;;;;;;5.73;48.30;97503.88;4963464;28;20899;-70
2023/03/02 00:49:24;;;;;;;37.00;22.73;;;;;;;5.84;48.21;97506.50;4956930;28;20216;-69
2023/03/02 00:51:50;;;;;;;37.37;23.20;;;;;;;5.74;48.25;97505.53;4954731;28;20273;-69
2023/03/02 00:54:15;;;;;;;33.63;21.83;;;;;;;5.79;48.12;97504.25;4960186;28;20265;-69
2023/03/02 00:56:41;;;;;;;33.57;20.77;;;;;;;5.79;47.86;97501.63;4956351;28;20226;-69
2023/03/02 00:59:25;;;;;;;35.60;21.20;;;;;;;5.83;48.11;97507.44;4958771;28;20557;-67
2023/03/02 01:01:56;;;;;;;33.70;21.40;;;;;;;5.69;48.49;97506.69;4940497;29;20250;-69
2023/03/02 01:04:34;;;;;;;33.57;20.30;;;;;;;5.67;48.11;97507.75;4960256;28;20443;-69
2023/03/02 01:07:02;;;;;;;39.10;21.00;;;;;;;5.57;48.51;97502.41;4936993;29;20472;-68
2023/03/02 01:09:28;;;;;;;41.93;21.97;;;;;;;5.64;48.89;97493.22;4955547;28;20426;-69
2023/03/02 01:11:54;;;;;;;38.03;22.00;;;;;;;5.62;48.28;97497.69;4955030;28;20924;-69
2023/03/02 01:14:19;;;;;;;34.90;21.07;;;;;;;5.65;48.22;97488.81;4954453;28;20434;-69
2023/03/02 01:16:46;;;;;;;39.63;22.13;;;;;;;5.70;48.56;97489.31;4961687;28;20216;-68
2023/03/02 01:19:14;;;;;;;35.33;21.73;;;;;;;5.62;48.51;97484.69;4951072;28;20194;-69
2023/03/02 01:21:40;;;;;;;34.20;22.07;;;;;;;5.71;48.52;97487.53;4952526;28;20442;-69
2023/03/02 01:24:06;;;;;;;34.13;21.67;;;;;;;5.58;48.84;97483.25;4935355;29;20509;-69
2023/03/02 01:26:32;;;;;;;38.40;22.73;;;;;;;5.58;48.44;97487.63;4950721;28;20458;-69
2023/03/02 01:28:57;;;;;;;36.73;22.83;;;;;;;5.62;48.86;97469.09;4950668;28;20843;-68
2023/03/02 01:31:24;;;;;;;35.30;20.90;;;;;;;5.69;48.94;97475.47;4951029;28;20186;-68
2023/03/02 01:33:50;;;;;;;37.50;21.40;;;;;;;5.71;48.60;97471.94;4950480;28;20190;-69
2023/03/02 01:36:15;;;;;;;39.80;22.43;;;;;;;5.73;48.35;97478.69;4935890;29;20964;-69
2023/03/02 01:38:41;;;;;;;37.03;21.50;;;;;;;5.71;48.44;97471.94;4958419;28;20308;-68
2023/03/02 01:41:07;;;;;;;36.63;20.90;;;;;;;5.73;48.26;97472.66;4958444;28;20190;-68
2023/03/02 01:43:32;;;;;;;34.10;21.93;;;;;;;5.64;48.79;97467.22;4955357;28;20187;-69
2023/03/02 01:46:23;;;;;;;39.93;23.10;;;;;;;5.66;48.88;97465.31;4955896;28;20587;-68
2023/03/02 01:48:52;;;;;;;44.90;23.00;;;;;;;5.59;48.60;97461.50;4949890;28;20215;-69
2023/03/02 01:51:21;;;;;;;34.83;22.20;;;;;;;5.62;49.17;97457.84;4917745;29;20504;-69
2023/03/02 01:53:51;;;;;;;34.77;20.87;;;;;;;5.60;49.23;97450.16;4925731;28;20813;-70
2023/03/02 01:56:20;;;;;;;38.20;22.63;;;;;;;5.56;49.17;97453.94;4909553;29;20422;-68
2023/03/02 01:58:47;;;;;;;40.07;21.60;;;;;;;5.44;49.20;97450.50;4934141;28;20552;-69
2023/03/02 02:01:16;;;;;;;35.87;21.60;;;;;;;5.51;49.69;97450.88;4933281;29;20438;-68
2023/03/02 02:03:47;;;;;;;33.10;22.10;;;;;;;5.51;49.00;97450.88;4941652;28;20927;-68
2023/03/02 02:06:19;;;;;;;33.27;20.93;;;;;;;5.51;49.07;97450.88;4951514;28;20502;-69
2023/03/02 02:08:45;;;;;;;37.53;22.97;;;;;;;5.49;49.08;97437.16;4952439;28;20473;-69
2023/03/02 02:11:11;;;;;;;34.43;21.53;;;;;;;5.50;49.40;97444.00;4941514;29;20982;-69
2023/03/02 02:13:37;;;;;;;39.13;21.90;;;;;;;5.57;48.69;97444.38;4954292;28;20202;-68
2023/03/02 02:16:03;;;;;;;36.53;22.60;;;;;;;5.51;49.02;97435.25;4933555;29;20795;-67
2023/03/02 02:18:28;;;;;;;36.70;20.87;;;;;;;5.47;49.46;97439.03;4966064;28;20210;-68
2023/03/02 02:20:54;;;;;;;38.60;23.77;;;;;;;5.50;48.99;97436.22;4950409;28;20915;-70
2023/03/02 02:23:41;;;;;;;35.33;21.40;;;;;;;5.46;49.43;97435.63;4933844;29;20222;-71
2023/03/02 02:26:17;;;;;;;36.27;22.43;;;;;;;5.53;49.20;97428.19;4949104;28;20461;-69
2023/03/02 02:28:48;;;;;;;45.77;22.53;;;;;;;5.49;49.13;97431.94;4939167;28;20437;-68
2023/03/02 02:31:28;;;;;;;38.17;23.03;;;;;;;5.47;49.41;97439.03;4965446;28;20430;-69
2023/03/02 02:33:58;;;;;;;32.80;20.93;;;;;;;5.46;49.22;97429.56;4939888;29;20799;-68
2023/03/02 02:36:32;;;;;;;43.77;22.73;;;;;;;5.42;49.62;97422.97;4970070;28;20458;-69
2023/03/02 02:39:02;;;;;;;39.77;22.67;;;;;;;5.47;49.60;97418.22;4947724;28;20465;-69
2023/03/02 02:41:30;;;;;;;35.17;22.10;;;;;;;5.49;49.13;97419.75;4947209;28;20432;-68
2023/03/02 02:43:56;;;;;;;36.17;22.60;;;;;;;5.45;49.40;97417.50;4939142;29;20512;-67
2023/03/02 02:46:22;;;;;;;38.60;23.30;;;;;;;5.47;49.31;97420.81;4953933;28;20548;-68
2023/03/02 02:48:47;;;;;;;36.47;22.93;;;;;;;5.48;49.26;97423.31;4976464;28;20192;-69
2023/03/02 02:51:19;;;;;;;38.13;23.27;;;;;;;5.44;49.30;97410.66;4954061;28;20922;-68
2023/03/02 02:53:51;;;;;;;38.77;22.23;;;;;;;5.51;49.37;97417.06;4962168;28;20190;-68
2023/03/02 02:56:17;;;;;;;34.10;21.07;;;;;;;5.56;49.42;97417.53;4939658;29;20885;-68
2023/03/02 02:58:45;;;;;;;38.07;21.83;;;;;;;5.56;48.90;97412.34;4943857;28;20485;-69
2023/03/02 03:01:13;;;;;;;38.30;23.87;;;;;;;5.54;49.27;97414.25;4965357;28;20520;-69
2023/03/02 03:03:38;;;;;;;36.90;23.50;;;;;;;5.55;48.93;97415.88;4936324;28;20430;-69
2023/03/02 03:06:08;;;;;;;39.77;23.43;;;;;;;5.50;49.08;97416.22;4952463;28;21030;-69
2023/03/02 03:08:42;;;;;;;43.43;24.77;;;;;;;5.42;49.24;97415.16;4953401;28;20342;-69
2023/03/02 03:11:09;;;;;;;35.90;22.50;;;;;;;5.37;49.62;97413.72;4954180;28;20516;-69
2023/03/02 03:13:36;;;;;;;39.57;23.43;;;;;;;5.34;49.77;97415.72;4959981;28;20456;-69
2023/03/02 03:16:02;;;;;;;44.13;23.67;;;;;;;5.29;49.75;97410.03;4968206;28;20430;-68
2023/03/02 03:18:30;;;;;;;36.30;22.47;;;;;;;5.30;49.63;97403.91;4952540;28;21038;-68
2023/03/02 03:20:56;;;;;;;36.90;22.40;;;;;;;5.30;49.84;97402.09;4953117;28;20457;-69
2023/03/02 03:23:22;;;;;;;41.07;24.27;;;;;;;5.13;49.95;97403.38;4958790;28;20457;-69
2023/03/02 03:25:47;;;;;;;37.10;21.67;;;;;;;5.11;50.22;97397.44;4953116;28;20728;-70
2023/03/02 03:28:13;;;;;;;41.00;23.57;;;;;;;5.12;49.72;97398.28;4952923;28;20229;-69
2023/03/02 03:30:38;;;;;;;39.60;24.00;;;;;;;5.16;50.03;97399.72;4952922;28;20206;-69
2023/03/02 03:33:04;;;;;;;36.13;21.30;;;;;;;5.12;50.06;97399.09;4957877;28;20185;-69
2023/03/02 03:35:29;;;;;;;40.27;23.23;;;;;;;5.08;49.80;97398.50;4955092;28;20190;-69
2023/03/02 03:37:55;;;;;;;36.43;22.70;;;;;;;5.14;49.90;97396.41;4952952;28;20238;-70
2023/03/02 03:40:20;;;;;;;38.33;23.30;;;;;;;5.02;49.79;97403.31;4955591;28;20634;-69
2023/03/02 03:42:46;;;;;;;38.53;22.97;;;;;;;4.98;50.08;97401.91;4957112;28;20265;-68
2023/03/02 03:45:11;;;;;;;42.93;22.60;;;;;;;4.98;50.08;97396.72;4958663;28;20187;-70
2023/03/02 03:47:37;;;;;;;31.83;20.30;;;;;;;5.01;50.40;97394.72;4952900;28;20201;-69
2023/03/02 03:50:03;;;;;;;40.07;23.40;;;;;;;5.00;50.56;97400.84;4952853;28;20282;-69
2023/03/02 03:52:31;;;;;;;34.77;22.40;;;;;;;4.96;50.14;97404.59;4962035;28;20253;-70
2023/03/02 03:54:58;;;;;;;37.03;21.93;;;;;;;4.90;50.69;97410.25;4955551;28;20457;-70
2023/03/02 03:57:25;;;;;;;39.23;24.37;;;;;;;4.93;50.81;97404.81;4956563;28;20481;-68
2023/03/02 03:59:50;;;;;;;38.40;23.23;;;;;;;4.97;50.91;97408.88;4954749;28;20568;-69
2023/03/02 04:02:16;;;;;;;44.33;24.40;;;;;;;5.00;50.64;97415.59;4952832;28;20530;-69
2023/03/02 04:04:41;;;;;;;38.80;23.77;;;;;;;4.96;50.38;97416.78;4952513;28;20182;-69
2023/03/02 04:07:07;;;;;;;39.23;21.93;;;;;;;4.92;50.61;97410.97;4956803;28;20589;-69
2023/03/02 04:09:36;;;;;;;33.87;22.03;;;;;;;4.82;50.29;97418.63;4954318;28;20340;-69
2023/03/02 04:12:02;;;;;;;37.37;23.10;;;;;;;4.92;51.08;97419.59;4954593;28;20222;-69
2023/03/02 04:14:27;;;;;;;38.37;24.93;;;;;;;4.74;50.95;97419.16;4954628;28;20437;-70
2023/03/02 04:16:53;;;;;;;41.00;22.50;;;;;;;4.70;50.76;97420.31;4952160;28;20203;-69
2023/03/02 04:19:19;;;;;;;40.27;23.77;;;;;;;4.69;51.23;97426.44;4952176;28;20210;-67
2023/03/02 04:21:47;;;;;;;41.63;22.70;;;;;;;4.80;50.66;97430.03;4957004;28;20178;-69
2023/03/02 04:24:14;;;;;;;41.10;24.27;;;;;;;4.80;50.54;97430.03;4931930;29;20481;-68
2023/03/02 04:26:41;;;;;;;46.63;23.83;;;;;;;4.74;50.33;97434.75;4948432;28;20822;-68
2023/03/02 04:29:08;;;;;;;36.20;22.77;;;;;;;4.79;50.70;97428.41;4955886;28;20425;-69
2023/03/02 04:31:34;;;;;;;40.37;23.30;;;;;;;4.76;50.51;97435.47;4937652;29;20440;-69
2023/03/02 04:34:03;;;;;;;43.17;24.80;;;;;;;4.86;50.71;97424.41;4960928;28;20422;-68
2023/03/02 04:36:29;;;;;;;34.33;22.00;;;;;;;4.86;50.17;97424.41;4952168;28;20202;-68
2023/03/02 04:38:54;;;;;;;38.87;21.60;;;;;;;4.78;50.86;97426.75;4950842;28;20458;-69
2023/03/02 04:41:20;;;;;;;43.57;23.00;;;;;;;4.75;50.05;97422.56;4952307;28;20572;-69
2023/03/02 04:43:45;;;;;;;37.60;22.77;;;;;;;4.74;50.50;97421.75;4957329;28;20186;-70
2023/03/02 04:46:14;;;;;;;37.30;22.13;;;;;;;4.77;50.50;97420.69;4951130;28;20722;-69
2023/03/02 04:48:39;;;;;;;38.30;22.47;;;;;;;4.78;50.29;97419.75;4950472;28;20335;-69
2023/03/02 04:51:05;;;;;;;37.63;21.97;;;;;;;4.80;50.20;97414.44;4951162;28;20422;-71
2023/03/02 04:53:30;;;;;;;42.17;24.47;;;;;;;4.82;50.11;97412.56;4951367;28;20182;-69
2023/03/02 04:55:55;;;;;;;45.07;25.53;;;;;;;4.82;50.55;97422.97;4957084;28;20178;-69
2023/03/02 04:58:21;;;;;;;40.33;23.17;;;;;;;4.79;50.44;97428.41;4951308;28;20630;-69
2023/03/02 05:00:46;;;;;;;42.73;24.30;;;;;;;4.76;49.98;97430.28;4950166;28;20662;-70
2023/03/02 05:03:12;;;;;;;42.17;22.80;;;;;;;4.71;50.32;97421.97;4950947;28;20240;-70
2023/03/02 05:05:37;;;;;;;39.10;22.90;;;;;;;4.70;50.48;97417.72;4950789;28;20205;-69
2023/03/02 05:08:03;;;;;;;36.47;22.73;;;;;;;4.65;51.02;97425.03;4933983;29;20863;-69
2023/03/02 05:10:28;;;;;;;41.33;23.13;;;;;;;4.54;50.54;97422.34;4950681;28;20189;-70
2023/03/02 05:12:57;;;;;;;40.90;22.77;;;;;;;4.56;51.18;97417.88;4954420;28;20189;-68
2023/03/02 05:15:30;;;;;;;37.27;22.53;;;;;;;4.46;51.43;97418.53;4950960;28;20179;-69
2023/03/02 05:17:56;;;;;;;40.93;23.90;;;;;;;4.44;51.08;97423.00;4933104;28;20804;-68
2023/03/02 05:20:26;;;;;;;42.10;22.97;;;;;;;4.46;51.72;97415.94;4950982;28;20569;-68
2023/03/02 05:22:56;;;;;;;38.67;24.43;;;;;;;4.55;51.61;97418.81;4949756;28;20438;-68
2023/03/02 05:25:22;;;;;;;43.60;23.87;;;;;;;4.62;51.77;97420.03;4954187;28;20535;-68
2023/03/02 05:27:48;;;;;;;41.37;23.60;;;;;;;4.38;51.83;97420.84;4914806;28;20918;-67
2023/03/02 05:30:14;;;;;;;44.93;23.23;;;;;;;4.50;51.60;97418.31;4950031;28;20182;-67
2023/03/02 05:32:39;;;;;;;40.33;24.90;;;;;;;4.49;52.02;97414.88;4948237;28;20190;-68
2023/03/02 05:35:05;;;;;;;43.63;24.40;;;;;;;4.59;51.47;97417.66;4950476;28;20190;-69
2023/03/02 05:37:30;;;;;;;45.30;25.00;;;;;;;4.65;51.57;97412.03;4950686;28;20237;-69
2023/03/02 05:39:56;;;;;;;44.97;24.50;;;;;;;4.66;51.63;97416.28;4948907;28;20468;-69
2023/03/02 05:42:21;;;;;;;38.57;23.83;;;;;;;4.60;51.97;97419.31;4956845;28;20202;-69
2023/03/02 05:44:47;;;;;;;43.53;25.63;;;;;;;4.60;51.94;97419.31;4951740;28;20181;-69
2023/03/02 05:47:12;;;;;;;47.97;27.93;;;;;;;4.62;51.67;97412.25;4950129;28;20233;-69
2023/03/02 05:49:38;;;;;;;43.80;26.40;;;;;;;4.58;52.34;97406.47;4950098;28;20205;-69
2023/03/02 05:52:03;;;;;;;47.00;26.47;;;;;;;4.66;51.92;97408.50;4949344;28;20190;-68
2023/03/02 05:54:29;;;;;;;51.50;27.37;;;;;;;4.66;52.44;97412.84;4953379;28;20189;-68
2023/03/02 05:56:54;;;;;;;49.60;29.93;;;;;;;4.62;52.74;97417.44;4949059;28;20285;-67
2023/03/02 05:59:20;;;;;;;47.20;26.20;;;;;;;4.58;52.59;97416.00;4949778;28;20634;-69
2023/03/02 06:01:46;;;;;;;47.40;28.17;;;;;;;4.60;52.23;97419.31;4951737;28;20548;-68
2023/03/02 06:04:12;;;;;;;46.70;27.67;;;;;;;4.76;52.31;97419.88;4948809;28;20218;-67
2023/03/02 06:06:37;;;;;;;48.13;26.53;;;;;;;4.86;52.24;97424.41;4950774;28;20553;-72
2023/03/02 06:09:03;;;;;;;42.83;25.07;;;;;;;4.96;51.61;97425.38;4948130;28;20194;-69
2023/03/02 06:11:29;;;;;;;39.53;24.53;;;;;;;4.97;51.97;97426.22;4932582;29;20716;-69
2023/03/02 06:13:54;;;;;;;45.40;24.70;;;;;;;5.01;51.40;97433.69;4927628;28;20591;-69
2023/03/02 06:16:20;;;;;;;40.43;24.70;;;;;;;5.02;51.87;97437.09;4936962;28;20451;-70
2023/03/02 06:18:45;;;;;;;40.70;25.40;;;;;;;5.08;51.82;97432.28;4928949;28;20780;-70
2023/03/02 06:21:11;;;;;;;41.17;23.73;;;;;;;5.08;51.79;97434.06;4932161;29;20868;-70
2023/03/02 06:23:37;;;;;;;43.17;24.50;;;;;;;5.07;51.91;97433.22;4927949;29;20305;-69
2023/03/02 06:26:11;;;;;;;44.70;26.13;;;;;;;5.13;52.01;97431.13;4926988;28;20517;-69
2023/03/02 06:28:37;;;;;;;36.30;23.53;;;;;;;5.18;51.35;97432.44;4949829;28;20201;-69
2023/03/02 06:31:02;;;;;;;44.40;24.63;;;;;;;5.14;51.93;97444.00;4949512;28;20472;-69
2023/03/02 06:33:29;;;;;;;43.87;23.80;;;;;;;5.10;51.87;97441.75;4949922;28;20930;-69
2023/03/02 06:35:54;;;;;;;46.20;25.60;;;;;;;5.05;52.10;97440.31;4947765;28;20189;-69
2023/03/02 06:38:20;;;;;;;47.93;25.83;;;;;;;4.95;52.14;97439.31;4953365;28;20464;-70
2023/03/02 06:40:45;;;;;;;39.70;24.63;;;;;;;5.03;52.25;97442.22;4950161;28;20288;-69
2023/03/02 06:43:11;;;;;;;43.67;24.40;;;;;;;5.10;51.84;97446.94;4960563;28;20222;-69
2023/03/02 06:45:36;;;;;;;43.00;25.70;;;;;;;5.11;51.97;97449.41;4950379;28;20213;-71
2023/03/02 06:48:02;;;;;;;41.07;24.10;;;;;;;5.18;52.45;97455.84;4959219;28;20313;-72
2023/03/02 06:50:28;;;;;;;42.03;23.43;;;;;;;5.20;52.04;97461.75;4954241;28;20189;-71
2023/03/02 06:52:53;;;;;;;43.87;25.13;;;;;;;5.22;52.17;97453.84;4949513;28;20434;-70
2023/03/02 06:55:19;;;;;;;39.73;23.50;;;;;;;5.30;52.22;97450.69;4950512;28;20277;-70
2023/03/02 06:57:44;;;;;;;42.53;24.43;;;;;;;5.27;51.40;97454.34;4950425;28;20617;-70
2023/03/02 07:00:23;;;;;;;44.77;25.10;;;;;;;5.27;52.25;97459.53;4950795;28;20210;-70
2023/03/02 07:02:48;;;;;;;41.17;23.80;;;;;;;5.29;51.56;97467.22;4954024;28;20261;-70
2023/03/02 07:05:14;;;;;;;50.27;27.17;;;;;;;5.29;51.95;97460.25;4952885;28;20473;-70
2023/03/02 07:07:40;;;;;;;40.97;25.33;;;;;;;5.30;51.96;97464.50;4954453;28;20631;-71
2023/03/02 07:10:06;;;;;;;42.50;24.90;;;;;;;5.31;51.80;97465.34;4951497;28;20190;-71
2023/03/02 07:12:31;;;;;;;38.03;25.10;;;;;;;5.30;52.40;97467.09;4943472;28;20187;-70
2023/03/02 07:14:57;;;;;;;38.70;23.80;;;;;;;5.30;52.58;97474.88;4956292;28;20434;-72
2023/03/02 07:17:22;;;;;;;40.80;24.40;;;;;;;5.41;52.13;97473.28;4966668;28;20376;-70
2023/03/02 07:19:48;;;;;;;40.07;22.47;;;;;;;5.46;51.65;97477.22;4955988;28;20242;-70
2023/03/02 07:22:13;;;;;;;37.30;23.03;;;;;;;5.50;51.68;97472.59;4965194;28;20217;-70
2023/03/02 07:24:39;;;;;;;41.23;24.33;;;;;;;5.54;51.53;97477.47;4967736;28;20277;-71
2023/03/02 07:27:04;;;;;;;43.27;25.10;;;;;;;5.48;51.86;97479.69;4961676;28;20206;-71
2023/03/02 07:29:29;;;;;;;44.27;24.50;;;;;;;5.49;52.21;97479.56;4962797;28;20769;-72
2023/03/02 07:31:58;;;;;;;40.63;23.60;;;;;;;5.54;51.97;97479.25;4943200;28;20202;-70
2023/03/02 07:34:23;;;;;;;42.20;25.13;;;;;;;5.57;51.72;97479.00;4957137;28;20201;-71
2023/03/02 07:36:50;;;;;;;40.43;24.30;;;;;;;5.62;51.32;97486.44;4955218;28;20453;-70
2023/03/02 07:39:15;;;;;;;41.93;25.90;;;;;;;5.62;51.44;97479.50;4964312;28;20297;-71
2023/03/02 07:41:40;;;;;;;63.10;26.00;;;;;;;5.68;50.99;97478.22;4944266;28;20914;-71
2023/03/02 07:44:06;;;;;;;38.50;23.47;;;;;;;5.75;51.06;97486.38;4954063;28;20257;-70
2023/03/02 07:46:31;;;;;;;41.70;24.20;;;;;;;5.73;51.45;97483.06;4954340;28;20300;-70
2023/03/02 07:48:58;;;;;;;40.43;24.73;;;;;;;5.79;50.73;97483.44;4964537;28;20660;-71
2023/03/02 07:51:23;;;;;;;42.90;25.77;;;;;;;5.83;51.00;97484.03;4962582;28;20194;-70
2023/03/02 07:53:49;;;;;;;44.13;24.57;;;;;;;5.84;50.96;97489.13;4959100;28;20445;-70
2023/03/02 07:56:14;;;;;;;42.87;23.73;;;;;;;5.90;50.72;97490.44;4956386;28;20199;-70
2023/03/02 07:58:39;;;;;;;40.23;23.60;;;;;;;5.96;50.73;97487.34;4956437;28;20206;-70
2023/03/02 08:01:05;;;;;;;41.67;24.73;;;;;;;5.97;50.67;97491.63;4936884;28;20191;-71
2023/03/02 08:03:31;;;;;;;40.73;24.33;;;;;;;5.96;50.31;97487.34;4959626;28;20194;-70
2023/03/02 08:05:56;;;;;;;43.73;24.40;;;;;;;6.02;50.27;97488.69;4958848;28;20698;-70
2023/03/02 08:08:21;;;;;;;37.33;22.67;;;;;;;6.02;51.06;97493.06;4967131;28;20210;-69
2023/03/02 08:10:47;;;;;;;43.60;23.73;;;;;;;6.01;50.78;97488.81;4956526;28;20261;-70
2023/03/02 08:13:12;;;;;;;37.87;23.03;;;;;;;6.05;50.21;97500.66;4953707;28;20209;-70
2023/03/02 08:15:38;;;;;;;42.33;23.60;;;;;;;6.05;50.53;97503.25;4936793;29;20273;-70
2023/03/02 08:18:03;;;;;;;41.97;22.97;;;;;;;5.97;49.75;97503.81;4960257;28;20750;-69
2023/03/02 08:20:29;;;;;;;39.67;22.97;;;;;;;5.88;50.45;97499.28;4956957;28;20643;-69
2023/03/02 08:22:54;;;;;;;42.57;24.20;;;;;;;5.92;50.97;97511.94;4957370;28;20277;-71
2023/03/02 08:25:20;;;;;;;47.83;24.10;;;;;;;5.94;50.35;97509.25;4943088;29;20380;-71
2023/03/02 08:27:45;;;;;;;38.30;23.63;;;;;;;5.93;50.94;97508.38;4936116;29;20218;-69
2023/03/02 08:30:12;;;;;;;42.20;23.53;;;;;;;5.95;50.43;97509.09;4953025;28;20179;-69
2023/03/02 08:32:37;;;;;;;39.13;22.80;;;;;;;5.95;50.85;97509.09;4938830;28;20190;-70
2023/03/02 08:35:04;;;;;;;44.93;24.30;;;;;;;5.97;50.43;97504.63;4960851;28;20832;-70
2023/03/02 08:37:29;;;;;;;39.20;23.67;;;;;;;5.98;50.58;97503.69;4959891;28;20243;-71
2023/03/02 08:39:54;;;;;;;42.33;24.40;;;;;;;6.04;50.40;97499.81;4961170;28;20488;-72
2023/03/02 08:42:20;;;;;;;40.23;22.97;;;;;;;6.10;50.02;97498.53;4960572;28;20192;-71
2023/03/02 08:44:45;;;;;;;43.83;24.07;;;;;;;6.16;50.59;97500.66;4962439;28;20209;-71
2023/03/02 08:47:11;;;;;;;38.47;23.03;;;;;;;6.22;50.08;97500.19;4959601;28;20322;-70
2023/03/02 08:49:39;;;;;;;39.47;22.73;;;;;;;6.33;50.11;97488.13;4957910;28;20284;-70
2023/03/02 08:52:04;;;;;;;40.40;24.17;;;;;;;6.35;50.31;97488.81;4946265;28;20194;-70
2023/03/02 08:54:33;;;;;;;40.37;24.60;;;;;;;6.41;49.79;97490.97;4963829;28;20437;-71
2023/03/02 08:56:58;;;;;;;39.73;25.00;;;;;;;6.49;50.03;97490.38;4957122;28;20214;-69
2023/03/02 08:59:24;;;;;;;41.60;23.47;;;;;;;6.58;49.25;97492.25;4941648;29;20476;-69
2023/03/02 09:01:49;;;;;;;40.77;23.60;;;;;;;6.69;49.62;97488.78;4956686;28;20242;-71
2023/03/02 09:04:14;;;;;;;37.70;23.30;;;;;;;6.76;49.25;97482.16;4949638;28;20186;-72
2023/03/02 09:06:42;;;;;;;40.13;24.23;;;;;;;6.83;49.31;97477.28;4961552;28;20212;-71
2023/03/02 09:09:09;;;;;;;39.23;22.73;;;;;;;6.88;48.83;97478.59;4936076;28;20186;-70
2023/03/02 09:11:35;;;;;;;36.23;20.83;;;;;;;6.98;48.47;97485.66;4956455;28;20470;-72
2023/03/02 09:14:00;;;;;;;46.80;23.40;;;;;;;7.02;48.54;97480.06;4963542;28;21040;-71
2023/03/02 09:16:26;;;;;;;41.33;22.73;;;;;;;7.06;48.38;97472.81;4957547;28;20182;-70
2023/03/02 09:18:52;;;;;;;45.40;21.60;;;;;;;7.10;48.14;97470.81;4935803;28;20211;-70
2023/03/02 09:21:17;;;;;;;37.30;22.30;;;;;;;7.20;48.49;97472.53;4952429;28;20202;-71
2023/03/02 09:23:43;;;;;;;33.47;20.27;;;;;;;7.30;48.11;97469.22;4952034;28;20450;-71
2023/03/02 09:26:08;;;;;;;37.07;21.23;;;;;;;7.32;47.87;97472.50;4939177;28;20789;-70
2023/03/02 09:28:35;;;;;;;33.57;20.23;;;;;;;7.43;47.57;97472.47;4959207;28;20207;-71
2023/03/02 09:31:03;;;;;;;34.70;19.97;;;;;;;7.55;47.46;97472.41;4950938;28;20215;-71
2023/03/02 09:33:29;;;;;;;34.53;19.30;;;;;;;7.67;47.85;97471.41;4950785;28;20426;-69
2023/03/02 09:35:55;;;;;;;32.90;21.60;;;;;;;7.76;47.45;97481.06;4952779;28;20445;-69
2023/03/02 09:38:20;;;;;;;35.10;21.67;;;;;;;7.74;47.01;97484.75;4958598;28;20462;-72
2023/03/02 09:40:50;;;;;;;34.97;22.23;;;;;;;7.85;47.20;97482.09;4951288;28;20595;-70
2023/03/02 09:43:37;;;;;;;32.53;20.90;;;;;;;7.90;46.69;97482.50;4962247;28;20187;-72
2023/03/02 09:46:27;;;;;;;32.93;21.10;;;;;;;7.99;46.61;97489.59;4949236;28;20433;-71
2023/03/02 09:49:04;;;;;;;36.70;22.10;;;;;;;8.03;46.66;97490.16;4951219;28;20538;-70
2023/03/02 09:51:44;;;;;;;32.87;20.03;;;;;;;8.07;46.93;97496.75;4941287;29;20430;-70
2023/03/02 09:54:15;;;;;;;34.00;21.10;;;;;;;8.06;46.60;97484.69;4941491;28;20431;-71
2023/03/02 09:56:49;;;;;;;37.40;22.23;;;;;;;8.11;46.45;97492.13;4933621;29;20501;-71
2023/03/02 09:59:34;;;;;;;31.37;20.13;;;;;;;8.20;46.94;97504.38;4933355;28;20473;-70
2023/03/02 10:02:14;;;;;;;39.70;22.20;;;;;;;8.21;46.92;97495.59;4952856;28;20467;-72
2023/03/02 10:04:43;;;;;;;45.80;21.77;;;;;;;8.28;46.28;97496.72;4956750;28;20923;-71
2023/03/02 10:07:29;;;;;;;32.63;21.07;;;;;;;8.26;46.19;97495.22;4938120;28;20460;-71
2023/03/02 10:10:02;;;;;;;35.10;20.70;;;;;;;8.30;46.51;97494.81;4964960;28;20846;-70
2023/03/02 10:12:49;;;;;;;29.57;19.40;;;;;;;8.34;46.28;97495.38;4956844;28;20444;-71
2023/03/02 10:15:23;;;;;;;35.07;21.00;;;;;;;8.44;46.15;97495.41;4950704;28;20430;-72
2023/03/02 10:18:13;;;;;;;32.60;19.27;;;;;;;8.49;45.79;97500.28;4933284;29;20449;-69
2023/03/02 10:20:59;;;;;;;32.27;20.10;;;;;;;8.56;46.46;97499.63;4944726;28;20497;-71
2023/03/02 10:23:32;;;;;;;32.03;18.93;;;;;;;8.58;46.08;97497.69;4968311;28;20520;-70
2023/03/02 10:26:26;;;;;;;36.80;20.80;;;;;;;8.66;46.84;97504.88;4953745;28;20423;-71
2023/03/02 10:29:21;;;;;;;33.50;20.33;;;;;;;8.79;46.35;97496.78;4940314;28;20438;-69
2023/03/02 10:31:51;;;;;;;35.13;20.90;;;;;;;8.87;45.96;97493.50;4938519;29;20426;-71
2023/03/02 10:34:17;;;;;;;31.50;19.50;;;;;;;8.89;45.22;97508.09;4956602;28;20438;-70
2023/03/02 10:36:46;;;;;;;37.40;21.60;;;;;;;8.91;45.48;97502.75;4952198;28;20957;-71
2023/03/02 10:39:13;;;;;;;30.93;20.73;;;;;;;8.98;45.32;97506.47;4957764;28;20469;-71
2023/03/02 10:41:44;;;;;;;31.13;20.00;;;;;;;9.06;45.22;97508.41;4951366;28;20422;-70
2023/03/02 10:44:26;;;;;;;34.50;21.50;;;;;;;9.11;45.41;97503.59;4953238;28;20426;-72
2023/03/02 10:46:52;;;;;;;33.17;20.37;;;;;;;9.21;45.27;97506.22;4931935;29;20485;-72
2023/03/02 10:49:24;;;;;;;29.97;20.10;;;;;;;9.28;45.05;97506.50;4949958;28;20454;-71
2023/03/02 10:52:12;;;;;;;31.33;19.50;;;;;;;9.35;44.67;97503.19;4939509;28;20591;-71
2023/03/02 10:54:37;;;;;;;31.07;19.40;;;;;;;9.47;44.59;97503.91;4959621;28;20465;-71
2023/03/02 10:57:27;;;;;;;34.63;20.40;;;;;;;9.54;44.95;97501.56;4952762;28;20457;-72
2023/03/02 10:59:57;;;;;;;32.00;20.17;;;;;;;9.63;44.47;97500.72;4941531;29;20206;-71
2023/03/02 11:02:26;;;;;;;38.93;21.67;;;;;;;9.72;44.04;97500.84;4937315;29;20426;-71
2023/03/02 11:05:21;;;;;;;37.27;21.07;;;;;;;9.76;44.06;97503.06;4959696;28;20508;-71
2023/03/02 11:08:00;;;;;;;31.97;20.60;;;;;;;9.83;44.03;97501.53;4941233;29;20444;-71
2023/03/02 11:10:33;;;;;;;34.00;21.80;;;;;;;9.95;43.71;97496.97;4937404;29;20422;-71
2023/03/02 11:12:59;;;;;;;31.50;20.30;;;;;;;10.04;43.53;97489.22;4954404;28;20454;-73
2023/03/02 11:15:31;;;;;;;35.60;20.70;;;;;;;10.11;43.25;97492.91;4951800;28;20799;-72
2023/03/02 11:18:04;;;;;;;31.80;20.03;;;;;;;10.34;43.10;97487.31;4933537;29;20444;-70
2023/03/02 11:20:38;;;;;;;34.63;21.37;;;;;;;10.48;42.46;97494.75;4919557;29;20442;-72
2023/03/02 11:23:24;;;;;;;32.80;20.43;;;;;;;10.39;42.20;97485.97;4936538;28;20426;-70
2023/03/02 11:25:53;;;;;;;36.03;21.73;;;;;;;10.48;42.30;97489.50;4936832;29;20442;-70
2023/03/02 11:28:39;;;;;;;37.70;22.33;;;;;;;10.31;42.33;97485.81;4955335;28;20452;-70